Time;durP1;ratioP1;P1;durP2;ratioP2;P2;SDS_P1;SDS_P2;PMS_P1;PMS_P2;Temp;Humidity;BMP_temperature;BMP_pressure;BME280_temperature;BME280_humidity;BME280_pressure;Samples;Min_cycle;Max_cycle;Signal;HPM_P1;HPM_P2
2023/11/15 00:00:08;;;;;;;21.73;16.70;;;15.70;69.30;;;;;;338877;29;1633;-53
2023/11/15 00:00:19;;;;;;;21.55;17.00;;;15.60;69.30;;;;;;338880;29;1064;-53
2023/11/15 00:00:29;;;;;;;21.37;16.80;;;15.60;69.30;;;;;;338858;29;1386;-55
2023/11/15 00:00:40;;;;;;;21.00;16.63;;;15.60;69.30;;;;;;338872;29;922;-54
2023/11/15 00:00:51;;;;;;;20.73;16.23;;;15.60;69.40;;;;;;338899;29;997;-54
2023/11/15 00:01:02;;;;;;;20.58;16.05;;;15.60;69.40;;;;;;338861;29;1438;-54
2023/11/15 00:01:13;;;;;;;20.60;16.15;;;15.70;69.40;;;;;;338915;29;1112;-54
2023/11/15 00:01:25;;;;;;;20.30;16.55;;;15.70;69.40;;;;;;338932;29;1760;-53
2023/11/15 00:01:36;;;;;;;20.77;16.75;;;15.70;69.40;;;;;;338787;29;1188;-53
2023/11/15 00:01:47;;;;;;;21.27;16.77;;;15.70;69.40;;;;;;338972;29;900;-54
2023/11/15 00:01:58;;;;;;;21.77;16.85;;;15.60;69.30;;;;;;338850;29;1082;-58
2023/11/15 00:02:08;;;;;;;24.35;17.40;;;15.70;69.30;;;;;;338885;29;981;-54
2023/11/15 00:02:19;;;;;;;24.10;17.48;;;15.70;69.30;;;;;;338949;29;909;-54
2023/11/15 00:02:30;;;;;;;23.38;17.05;;;15.70;69.30;;;;;;338849;29;985;-54
2023/11/15 00:02:41;;;;;;;21.65;16.75;;;15.60;69.30;;;;;;338939;29;945;-53
2023/11/15 00:02:52;;;;;;;23.20;17.17;;;15.70;69.30;;;;;;338892;29;1016;-53
2023/11/15 00:03:03;;;;;;;24.52;17.70;;;15.70;69.30;;;;;;338911;29;1024;-53
2023/11/15 00:03:13;;;;;;;26.17;18.45;;;15.70;69.30;;;;;;338906;29;879;-53
2023/11/15 00:03:24;;;;;;;25.75;18.98;;;15.70;69.30;;;;;;338778;29;1021;-55
2023/11/15 00:03:35;;;;;;;25.57;19.30;;;15.60;69.30;;;;;;338908;29;905;-57
2023/11/15 00:03:45;;;;;;;23.35;18.45;;;15.70;69.30;;;;;;338858;29;1009;-53
2023/11/15 00:03:56;;;;;;;24.08;18.10;;;15.70;69.30;;;;;;338837;29;1474;-56
2023/11/15 00:04:08;;;;;;;27.20;18.13;;;15.70;69.30;;;;;;338906;29;905;-54
2023/11/15 00:04:20;;;;;;;26.85;18.00;;;15.70;69.20;;;;;;338842;29;1001;-54
2023/11/15 00:04:31;;;;;;;23.50;17.42;;;15.70;69.20;;;;;;338918;29;1146;-53
2023/11/15 00:04:42;;;;;;;20.67;17.20;;;15.70;69.10;;;;;;338969;29;953;-54
2023/11/15 00:04:52;;;;;;;22.07;17.37;;;15.70;69.10;;;;;;338866;29;989;-53
2023/11/15 00:05:04;;;;;;;24.15;17.98;;;15.70;69.10;;;;;;338793;29;1084;-54
2023/11/15 00:05:15;;;;;;;23.67;18.00;;;15.70;69.10;;;;;;338861;29;1115;-54
2023/11/15 00:05:29;;;;;;;22.20;17.27;;;15.70;69.10;;;;;;338984;29;949;-54
2023/11/15 00:05:40;;;;;;;20.75;16.27;;;15.70;69.10;;;;;;338924;29;949;-54
2023/11/15 00:05:51;;;;;;;21.33;15.55;;;15.70;69.20;;;;;;338834;29;1003;-54
2023/11/15 00:06:02;;;;;;;20.83;15.38;;;15.70;69.30;;;;;;338880;29;1001;-54
2023/11/15 00:06:13;;;;;;;21.25;16.02;;;15.70;69.30;;;;;;338939;29;918;-55
2023/11/15 00:06:24;;;;;;;20.20;16.55;;;15.70;69.20;;;;;;338944;29;1095;-55
2023/11/15 00:06:34;;;;;;;20.27;16.15;;;15.70;69.20;;;;;;338967;29;1047;-54
2023/11/15 00:06:46;;;;;;;20.53;15.93;;;15.70;69.20;;;;;;338870;29;1083;-54
2023/11/15 00:06:57;;;;;;;21.08;16.08;;;15.70;69.10;;;;;;338893;29;1059;-54
2023/11/15 00:07:07;;;;;;;20.77;16.23;;;15.70;69.10;;;;;;338966;29;1079;-54
2023/11/15 00:07:18;;;;;;;20.08;16.08;;;15.70;69.10;;;;;;338920;29;978;-53
2023/11/15 00:07:32;;;;;;;20.47;16.07;;;15.60;69.00;;;;;;338955;29;945;-55
2023/11/15 00:07:44;;;;;;;21.30;16.67;;;15.70;69.00;;;;;;338823;29;910;-53
2023/11/15 00:07:55;;;;;;;21.33;16.50;;;15.70;69.00;;;;;;338853;29;1903;-55
2023/11/15 00:08:06;;;;;;;20.95;16.45;;;15.60;69.00;;;;;;338818;29;1124;-55
2023/11/15 00:08:17;;;;;;;20.38;16.77;;;15.70;69.10;;;;;;338801;29;1832;-55
2023/11/15 00:08:28;;;;;;;19.70;16.30;;;15.70;69.10;;;;;;338850;29;1385;-54
2023/11/15 00:08:38;;;;;;;21.55;16.42;;;15.70;69.00;;;;;;338870;29;1004;-55
2023/11/15 00:08:49;;;;;;;21.25;15.80;;;15.70;69.00;;;;;;338946;29;920;-54
2023/11/15 00:09:00;;;;;;;22.02;16.38;;;15.70;69.00;;;;;;338862;29;1163;-53
2023/11/15 00:09:11;;;;;;;19.77;16.20;;;15.70;69.00;;;;;;338889;29;874;-55
2023/11/15 00:09:21;;;;;;;19.63;16.48;;;15.70;69.00;;;;;;338919;29;1085;-54
2023/11/15 00:09:33;;;;;;;19.60;16.17;;;15.60;69.00;;;;;;338937;29;992;-54
2023/11/15 00:09:43;;;;;;;20.35;16.30;;;15.70;68.90;;;;;;338841;29;1026;-53
2023/11/15 00:09:54;;;;;;;20.58;16.58;;;15.70;68.90;;;;;;338923;29;918;-54
2023/11/15 00:10:05;;;;;;;22.52;16.65;;;15.60;68.90;;;;;;338930;29;981;-56
2023/11/15 00:10:16;;;;;;;22.92;16.48;;;15.70;68.90;;;;;;338855;29;1064;-54
2023/11/15 00:10:27;;;;;;;25.30;16.20;;;15.70;68.90;;;;;;338928;29;920;-54
2023/11/15 00:10:41;;;;;;;24.40;16.33;;;15.70;68.90;;;;;;338927;29;853;-55
2023/11/15 00:10:52;;;;;;;21.80;16.60;;;15.70;68.90;;;;;;338846;29;1055;-53
2023/11/15 00:11:03;;;;;;;20.80;16.80;;;15.70;68.90;;;;;;338915;29;1096;-55
2023/11/15 00:11:18;;;;;;;20.30;16.48;;;15.70;68.90;;;;;;338819;29;1031;-53
2023/11/15 00:11:29;;;;;;;20.80;16.63;;;15.70;68.80;;;;;;338983;29;850;-54
2023/11/15 00:11:40;;;;;;;22.30;17.07;;;15.60;68.80;;;;;;338784;29;1151;-53
2023/11/15 00:11:51;;;;;;;21.58;16.80;;;15.70;68.80;;;;;;338857;29;2521;-53
2023/11/15 00:12:03;;;;;;;20.83;16.37;;;15.70;68.80;;;;;;338875;29;965;-54
2023/11/15 00:12:14;;;;;;;19.30;15.73;;;15.60;68.90;;;;;;338763;29;1300;-53
2023/11/15 00:12:24;;;;;;;19.60;15.65;;;15.70;69.00;;;;;;338864;29;1111;-53
2023/11/15 00:12:36;;;;;;;20.13;16.08;;;15.70;69.00;;;;;;338938;29;866;-54
2023/11/15 00:12:47;;;;;;;21.02;16.67;;;15.70;69.00;;;;;;338969;29;1000;-54
2023/11/15 00:12:58;;;;;;;20.53;16.50;;;15.70;69.10;;;;;;338886;29;984;-54
2023/11/15 00:13:09;;;;;;;20.65;16.38;;;15.60;69.10;;;;;;338987;29;807;-54
2023/11/15 00:13:19;;;;;;;19.42;16.13;;;15.60;69.10;;;;;;338921;29;1016;-54
2023/11/15 00:13:30;;;;;;;20.88;16.27;;;15.60;69.10;;;;;;338901;29;1100;-54
2023/11/15 00:13:41;;;;;;;21.27;16.13;;;15.60;69.00;;;;;;338869;29;891;-54
2023/11/15 00:13:52;;;;;;;22.50;16.35;;;15.60;69.00;;;;;;338899;29;1032;-54
2023/11/15 00:14:03;;;;;;;23.63;16.85;;;15.60;69.00;;;;;;338868;29;1040;-54
2023/11/15 00:14:14;;;;;;;22.70;16.85;;;15.60;69.00;;;;;;338904;29;854;-53
2023/11/15 00:14:24;;;;;;;21.90;16.90;;;15.60;69.00;;;;;;338834;29;895;-54
2023/11/15 00:14:35;;;;;;;21.35;16.90;;;15.60;69.00;;;;;;338919;29;1056;-54
2023/11/15 00:14:46;;;;;;;20.92;17.17;;;15.60;69.00;;;;;;338857;29;1147;-54
2023/11/15 00:14:57;;;;;;;21.48;17.00;;;15.60;69.00;;;;;;338927;29;1059;-53
2023/11/15 00:15:08;;;;;;;21.30;16.67;;;15.60;69.00;;;;;;338825;29;1140;-54
2023/11/15 00:15:19;;;;;;;21.08;16.75;;;15.60;69.00;;;;;;338863;29;1116;-53
2023/11/15 00:15:30;;;;;;;21.17;16.30;;;15.60;69.00;;;;;;338861;29;1092;-53
2023/11/15 00:15:40;;;;;;;22.67;16.27;;;15.60;69.00;;;;;;338890;29;826;-54
2023/11/15 00:15:51;;;;;;;23.20;16.00;;;15.60;69.00;;;;;;338842;29;1036;-54
2023/11/15 00:16:02;;;;;;;21.75;16.30;;;15.60;69.00;;;;;;338911;29;1005;-53
2023/11/15 00:16:13;;;;;;;21.23;16.35;;;15.60;69.00;;;;;;338883;29;1494;-54
2023/11/15 00:16:24;;;;;;;20.00;16.17;;;15.60;69.10;;;;;;338907;29;1051;-54
2023/11/15 00:16:35;;;;;;;20.38;16.20;;;15.60;69.10;;;;;;338854;29;958;-53
2023/11/15 00:16:46;;;;;;;21.67;16.23;;;15.60;69.10;;;;;;338818;29;1503;-54
2023/11/15 00:16:57;;;;;;;22.87;16.37;;;15.60;69.10;;;;;;338892;29;1052;-55
2023/11/15 00:17:07;;;;;;;21.55;16.27;;;15.60;69.10;;;;;;338929;29;830;-55
2023/11/15 00:17:19;;;;;;;19.65;16.10;;;15.60;69.10;;;;;;338728;29;1547;-54
2023/11/15 00:17:30;;;;;;;19.05;15.95;;;15.60;69.10;;;;;;338880;29;1040;-54
2023/11/15 00:17:41;;;;;;;20.30;15.82;;;15.60;69.10;;;;;;338867;29;1124;-54
2023/11/15 00:17:52;;;;;;;20.80;16.05;;;15.60;69.10;;;;;;338906;29;1155;-53
2023/11/15 00:18:04;;;;;;;19.98;16.02;;;15.60;69.00;;;;;;338817;29;1104;-53
2023/11/15 00:18:15;;;;;;;19.25;16.10;;;15.60;69.00;;;;;;338877;29;1095;-54
2023/11/15 00:18:26;;;;;;;19.83;16.20;;;15.60;69.00;;;;;;338925;29;854;-54
2023/11/15 00:18:37;;;;;;;21.98;16.10;;;15.60;68.90;;;;;;338834;29;1020;-54
2023/11/15 00:18:48;;;;;;;22.17;15.57;;;15.60;68.90;;;;;;338913;29;992;-54
2023/11/15 00:18:59;;;;;;;21.13;15.88;;;15.60;68.90;;;;;;338831;29;1167;-53
2023/11/15 00:19:09;;;;;;;19.97;16.07;;;15.60;68.90;;;;;;338823;29;1008;-54
2023/11/15 00:19:22;;;;;;;21.05;16.70;;;15.60;68.90;;;;;;338860;29;1215;-54
2023/11/15 00:19:34;;;;;;;21.67;16.70;;;15.60;68.90;;;;;;338925;29;989;-53
2023/11/15 00:19:45;;;;;;;21.85;16.73;;;15.60;68.90;;;;;;338838;29;1001;-52
2023/11/15 00:19:59;;;;;;;21.70;16.72;;;15.60;68.90;;;;;;338893;29;1150;-54
2023/11/15 00:20:13;;;;;;;21.40;16.33;;;15.60;69.00;;;;;;338892;29;1094;-54
2023/11/15 00:20:24;;;;;;;20.50;15.85;;;15.60;69.00;;;;;;338778;29;1124;-54
2023/11/15 00:20:34;;;;;;;20.77;15.75;;;15.60;69.00;;;;;;338921;29;826;-53
2023/11/15 00:20:45;;;;;;;20.73;15.80;;;15.60;69.00;;;;;;338866;29;1040;-54
2023/11/15 00:20:56;;;;;;;21.07;16.20;;;15.60;69.00;;;;;;338822;29;949;-53
2023/11/15 00:21:06;;;;;;;19.52;15.98;;;15.60;69.00;;;;;;338862;29;1100;-54
2023/11/15 00:21:18;;;;;;;19.10;15.98;;;15.60;69.00;;;;;;338818;29;1005;-54
2023/11/15 00:21:29;;;;;;;19.33;15.77;;;15.60;68.90;;;;;;338844;29;1017;-53
2023/11/15 00:21:40;;;;;;;19.95;16.05;;;15.60;68.80;;;;;;338874;29;1281;-53
2023/11/15 00:21:51;;;;;;;20.23;16.08;;;15.60;68.80;;;;;;338919;29;867;-54
2023/11/15 00:22:02;;;;;;;20.10;16.17;;;15.60;68.80;;;;;;338801;29;1152;-54
2023/11/15 00:22:14;;;;;;;20.70;16.03;;;15.60;68.80;;;;;;338847;29;1199;-54
2023/11/15 00:22:25;;;;;;;20.58;16.17;;;15.60;68.70;;;;;;338905;29;965;-54
2023/11/15 00:22:36;;;;;;;19.77;16.15;;;15.60;68.70;;;;;;338815;29;1211;-54
2023/11/15 00:22:47;;;;;;;18.73;15.85;;;15.60;68.70;;;;;;338815;29;1480;-54
2023/11/15 00:22:57;;;;;;;18.97;15.77;;;15.60;68.70;;;;;;338778;29;1096;-55
2023/11/15 00:23:08;;;;;;;19.80;15.75;;;15.60;68.70;;;;;;338923;29;858;-54
2023/11/15 00:23:19;;;;;;;20.13;15.70;;;15.60;68.70;;;;;;338869;29;973;-54
2023/11/15 00:23:30;;;;;;;20.85;15.43;;;15.60;68.80;;;;;;338803;29;989;-53
2023/11/15 00:23:41;;;;;;;20.45;15.63;;;15.60;68.80;;;;;;338843;29;1172;-53
2023/11/15 00:23:51;;;;;;;20.35;15.65;;;15.60;68.70;;;;;;338855;29;1155;-54
2023/11/15 00:24:03;;;;;;;19.43;15.73;;;15.60;68.80;;;;;;338871;29;1064;-55
2023/11/15 00:24:13;;;;;;;20.70;15.70;;;15.60;68.70;;;;;;338867;29;1128;-54
2023/11/15 00:24:24;;;;;;;21.53;15.93;;;15.60;68.70;;;;;;338750;29;1092;-54
2023/11/15 00:24:35;;;;;;;21.92;16.02;;;15.60;68.70;;;;;;338852;29;988;-55
2023/11/15 00:24:45;;;;;;;22.90;16.45;;;15.60;68.70;;;;;;338876;29;1036;-53
2023/11/15 00:24:56;;;;;;;21.50;15.93;;;15.60;68.70;;;;;;338840;29;929;-54
2023/11/15 00:25:08;;;;;;;20.40;15.63;;;15.60;68.80;;;;;;338858;29;961;-54
2023/11/15 00:25:19;;;;;;;20.00;15.43;;;15.60;68.80;;;;;;338800;29;2180;-54
2023/11/15 00:25:30;;;;;;;20.88;15.63;;;15.60;68.80;;;;;;338860;29;1089;-53
2023/11/15 00:25:41;;;;;;;19.83;15.68;;;15.60;68.80;;;;;;338767;29;1120;-53
2023/11/15 00:25:52;;;;;;;18.75;15.43;;;15.60;68.90;;;;;;338899;29;1092;-54
2023/11/15 00:26:04;;;;;;;19.47;16.00;;;15.60;68.90;;;;;;338804;29;918;-54
2023/11/15 00:26:14;;;;;;;19.60;16.05;;;15.60;68.80;;;;;;338894;29;964;-54
2023/11/15 00:26:26;;;;;;;19.83;16.10;;;15.60;68.80;;;;;;338811;29;1201;-54
2023/11/15 00:26:36;;;;;;;20.15;16.20;;;15.60;68.80;;;;;;338850;29;1101;-54
2023/11/15 00:26:48;;;;;;;19.48;15.63;;;15.60;68.80;;;;;;338806;29;1084;-53
2023/11/15 00:27:00;;;;;;;18.95;15.63;;;15.60;68.80;;;;;;338874;29;1246;-54
2023/11/15 00:27:11;;;;;;;17.65;15.30;;;15.60;68.80;;;;;;338818;29;1048;-53
2023/11/15 00:27:22;;;;;;;18.23;15.30;;;15.60;68.90;;;;;;338894;29;941;-53
2023/11/15 00:27:33;;;;;;;19.90;15.97;;;15.60;68.90;;;;;;338908;29;903;-53
2023/11/15 00:27:44;;;;;;;21.42;15.90;;;15.60;68.90;;;;;;338910;29;989;-54
2023/11/15 00:27:57;;;;;;;21.23;15.93;;;15.60;68.90;;;;;;338862;29;1970;-53
2023/11/15 00:28:09;;;;;;;20.52;15.90;;;15.60;68.90;;;;;;338841;29;1054;-54
2023/11/15 00:28:19;;;;;;;21.00;16.33;;;15.60;68.90;;;;;;338838;29;993;-53
2023/11/15 00:28:30;;;;;;;23.03;16.23;;;15.50;68.80;;;;;;338937;29;799;-53
2023/11/15 00:28:41;;;;;;;23.15;16.17;;;15.50;68.80;;;;;;338815;29;1449;-54
2023/11/15 00:28:55;;;;;;;20.88;15.68;;;15.60;68.80;;;;;;338823;29;1044;-53
2023/11/15 00:29:06;;;;;;;18.17;15.77;;;15.60;68.90;;;;;;338934;29;838;-53
2023/11/15 00:29:17;;;;;;;18.52;15.70;;;15.50;68.90;;;;;;338881;29;1017;-53
2023/11/15 00:29:28;;;;;;;19.45;15.65;;;15.60;68.90;;;;;;338908;29;953;-54
2023/11/15 00:29:38;;;;;;;21.23;16.00;;;15.50;68.90;;;;;;338901;29;886;-54
2023/11/15 00:29:49;;;;;;;21.53;15.90;;;15.50;68.90;;;;;;338761;29;1040;-53
2023/11/15 00:30:00;;;;;;;21.30;15.93;;;15.50;69.00;;;;;;338893;29;981;-53
2023/11/15 00:30:12;;;;;;;19.83;15.88;;;15.50;69.00;;;;;;338866;29;1028;-53
2023/11/15 00:30:23;;;;;;;20.55;16.17;;;15.50;69.00;;;;;;338927;29;1036;-54
2023/11/15 00:30:34;;;;;;;22.40;16.45;;;15.50;69.00;;;;;;338822;29;1184;-54
2023/11/15 00:30:44;;;;;;;22.55;16.40;;;15.60;69.00;;;;;;338836;29;953;-54
2023/11/15 00:30:55;;;;;;;22.10;16.25;;;15.50;69.00;;;;;;338861;29;1204;-54
2023/11/15 00:31:06;;;;;;;21.95;16.58;;;15.50;69.00;;;;;;338908;29;1009;-55
2023/11/15 00:31:17;;;;;;;21.70;16.57;;;15.50;68.90;;;;;;338911;29;993;-54
2023/11/15 00:31:27;;;;;;;21.52;16.60;;;15.60;69.00;;;;;;338892;29;866;-55
2023/11/15 00:31:40;;;;;;;21.27;16.35;;;15.50;68.90;;;;;;338873;29;898;-54
2023/11/15 00:31:50;;;;;;;20.65;16.55;;;15.60;68.90;;;;;;338881;29;1128;-53
2023/11/15 00:32:01;;;;;;;19.88;16.35;;;15.60;68.90;;;;;;338845;29;982;-54
2023/11/15 00:32:12;;;;;;;20.30;16.60;;;15.50;68.90;;;;;;338796;29;1116;-54
2023/11/15 00:32:23;;;;;;;20.38;16.25;;;15.50;68.90;;;;;;338887;29;1024;-54
2023/11/15 00:32:33;;;;;;;21.97;16.37;;;15.60;68.90;;;;;;338815;29;1422;-54
2023/11/15 00:32:44;;;;;;;21.13;16.00;;;15.60;68.80;;;;;;338927;29;1123;-55
2023/11/15 00:32:55;;;;;;;20.75;15.60;;;15.60;68.80;;;;;;338894;29;838;-54
2023/11/15 00:33:07;;;;;;;19.77;15.55;;;15.60;68.70;;;;;;338910;29;1096;-54
2023/11/15 00:33:18;;;;;;;20.52;16.40;;;15.60;68.70;;;;;;338886;29;1104;-55
2023/11/15 00:33:29;;;;;;;20.25;16.95;;;15.60;68.70;;;;;;338778;29;1121;-54
2023/11/15 00:33:40;;;;;;;20.52;17.15;;;15.60;68.70;;;;;;338903;29;823;-54
2023/11/15 00:33:51;;;;;;;19.77;16.70;;;15.60;68.70;;;;;;338908;29;993;-54
2023/11/15 00:34:05;;;;;;;19.92;17.10;;;15.60;68.60;;;;;;338834;29;1016;-55
2023/11/15 00:34:15;;;;;;;21.65;17.55;;;15.60;68.60;;;;;;338894;29;1052;-54
2023/11/15 00:34:26;;;;;;;21.58;17.20;;;15.60;68.50;;;;;;338788;29;1136;-54
2023/11/15 00:34:37;;;;;;;20.00;16.07;;;15.60;68.50;;;;;;338854;29;1140;-55
2023/11/15 00:34:48;;;;;;;19.80;16.02;;;15.60;68.50;;;;;;338867;29;810;-54
2023/11/15 00:34:58;;;;;;;20.52;15.93;;;15.60;68.50;;;;;;338836;29;1156;-55
2023/11/15 00:35:12;;;;;;;19.60;15.73;;;15.60;68.60;;;;;;338826;29;1096;-54
2023/11/15 00:35:23;;;;;;;19.75;15.48;;;15.60;68.60;;;;;;338847;29;1013;-54
2023/11/15 00:35:33;;;;;;;19.90;15.60;;;15.60;68.60;;;;;;338907;29;969;-54
2023/11/15 00:35:44;;;;;;;20.08;15.82;;;15.60;68.50;;;;;;338840;29;1655;-54
2023/11/15 00:35:56;;;;;;;20.13;15.75;;;15.60;68.50;;;;;;338848;29;1064;-54
2023/11/15 00:36:11;;;;;;;18.88;15.57;;;15.60;68.50;;;;;;338873;29;1727;-55
2023/11/15 00:36:22;;;;;;;19.33;15.80;;;15.60;68.60;;;;;;338950;29;1099;-54
2023/11/15 00:36:33;;;;;;;20.30;16.13;;;15.60;68.60;;;;;;338873;29;1036;-56
2023/11/15 00:36:45;;;;;;;20.83;15.95;;;15.60;68.60;;;;;;338908;29;1088;-54
2023/11/15 00:36:55;;;;;;;21.42;15.13;;;15.60;68.60;;;;;;338878;29;1100;-55
2023/11/15 00:37:06;;;;;;;21.00;14.98;;;15.50;68.60;;;;;;338803;29;1083;-55
2023/11/15 00:37:17;;;;;;;21.55;15.75;;;15.60;68.60;;;;;;338864;29;1092;-56
2023/11/15 00:37:28;;;;;;;20.48;15.88;;;15.60;68.60;;;;;;338931;29;1122;-57
2023/11/15 00:37:39;;;;;;;22.10;16.07;;;15.60;68.60;;;;;;338862;29;977;-55
2023/11/15 00:37:50;;;;;;;21.83;16.35;;;15.50;68.60;;;;;;338845;29;1120;-55
2023/11/15 00:38:03;;;;;;;22.57;16.37;;;15.50;68.60;;;;;;338725;29;1687;-54
2023/11/15 00:38:14;;;;;;;18.60;15.40;;;15.50;68.60;;;;;;338850;29;1203;-54
2023/11/15 00:38:29;;;;;;;18.70;15.88;;;15.50;68.70;;;;;;338884;29;1001;-55
2023/11/15 00:38:39;;;;;;;20.08;16.10;;;15.50;68.70;;;;;;338765;29;1144;-54
2023/11/15 00:38:50;;;;;;;18.65;15.20;;;15.50;68.70;;;;;;338829;29;1160;-54
2023/11/15 00:39:01;;;;;;;18.50;14.93;;;15.50;68.70;;;;;;338840;29;969;-55
2023/11/15 00:39:12;;;;;;;19.50;15.65;;;15.50;68.70;;;;;;338767;29;1822;-54
2023/11/15 00:39:22;;;;;;;21.23;16.30;;;15.50;68.70;;;;;;338922;29;811;-55
2023/11/15 00:39:34;;;;;;;20.52;16.40;;;15.50;68.70;;;;;;338912;29;1016;-54
2023/11/15 00:39:45;;;;;;;19.70;16.30;;;15.50;68.70;;;;;;338780;29;1325;-54
2023/11/15 00:39:56;;;;;;;18.85;16.30;;;15.50;68.70;;;;;;338808;29;1108;-54
2023/11/15 00:40:07;;;;;;;19.10;16.45;;;15.50;68.70;;;;;;338865;29;977;-56
2023/11/15 00:40:18;;;;;;;20.63;15.90;;;15.50;68.60;;;;;;338793;29;1013;-54
2023/11/15 00:40:28;;;;;;;21.25;15.82;;;15.50;68.70;;;;;;338878;29;983;-56
2023/11/15 00:40:41;;;;;;;20.88;15.77;;;15.50;68.70;;;;;;338861;29;1045;-54
2023/11/15 00:40:52;;;;;;;21.38;16.27;;;15.50;68.70;;;;;;338791;29;894;-55
2023/11/15 00:41:04;;;;;;;21.55;15.95;;;15.50;68.70;;;;;;338834;29;1077;-54
2023/11/15 00:41:15;;;;;;;20.48;15.77;;;15.50;68.70;;;;;;338884;29;1068;-53
2023/11/15 00:41:27;;;;;;;21.10;16.10;;;15.50;68.70;;;;;;338802;29;1071;-55
2023/11/15 00:41:39;;;;;;;22.20;16.30;;;15.50;68.70;;;;;;338853;29;1905;-54
2023/11/15 00:41:50;;;;;;;22.55;16.48;;;15.50;68.70;;;;;;338881;29;1071;-54
2023/11/15 00:42:01;;;;;;;23.08;16.88;;;15.40;68.70;;;;;;338844;29;981;-54
2023/11/15 00:42:11;;;;;;;22.42;17.00;;;15.50;68.70;;;;;;338883;29;1123;-54
2023/11/15 00:42:22;;;;;;;21.60;16.70;;;15.50;68.70;;;;;;338928;29;992;-54
2023/11/15 00:42:33;;;;;;;20.60;16.67;;;15.50;68.70;;;;;;338784;29;1025;-53
2023/11/15 00:42:44;;;;;;;20.33;16.98;;;15.50;68.70;;;;;;338802;29;1084;-54
2023/11/15 00:42:54;;;;;;;21.15;17.77;;;15.50;68.70;;;;;;338894;29;858;-54
2023/11/15 00:43:05;;;;;;;22.27;17.80;;;15.50;68.70;;;;;;338845;29;1270;-54
2023/11/15 00:43:18;;;;;;;23.90;17.52;;;15.50;68.80;;;;;;338797;29;1020;-55
2023/11/15 00:43:29;;;;;;;23.92;17.35;;;15.50;68.80;;;;;;338857;29;1187;-54
2023/11/15 00:43:40;;;;;;;23.45;17.70;;;15.50;68.80;;;;;;338884;29;792;-53
2023/11/15 00:43:51;;;;;;;22.88;17.10;;;15.50;68.90;;;;;;338856;29;965;-53
2023/11/15 00:44:07;;;;;;;23.48;17.23;;;15.40;68.90;;;;;;338829;29;1183;-54
2023/11/15 00:44:17;;;;;;;23.42;17.63;;;15.50;68.90;;;;;;338699;29;1832;-53
2023/11/15 00:44:28;;;;;;;23.05;17.50;;;15.50;68.90;;;;;;338851;29;848;-53
2023/11/15 00:44:39;;;;;;;21.67;17.13;;;15.50;68.80;;;;;;338724;29;1423;-55
2023/11/15 00:44:50;;;;;;;20.73;16.70;;;15.50;68.80;;;;;;338872;29;862;-55
2023/11/15 00:45:01;;;;;;;19.85;16.75;;;15.50;68.80;;;;;;338840;29;997;-53
2023/11/15 00:45:11;;;;;;;20.10;17.00;;;15.50;68.80;;;;;;338901;29;1065;-54
2023/11/15 00:45:25;;;;;;;21.08;17.45;;;15.50;68.80;;;;;;338809;29;1187;-54
2023/11/15 00:45:36;;;;;;;21.50;17.10;;;15.50;68.80;;;;;;338893;29;1071;-54
2023/11/15 00:45:47;;;;;;;20.85;16.73;;;15.40;68.90;;;;;;338866;29;1067;-53
2023/11/15 00:45:57;;;;;;;20.60;16.63;;;15.50;68.90;;;;;;338885;29;934;-54
2023/11/15 00:46:12;;;;;;;21.88;16.90;;;15.50;68.80;;;;;;338735;29;1096;-53
2023/11/15 00:46:23;;;;;;;21.55;17.27;;;15.40;68.80;;;;;;338870;29;1001;-53
2023/11/15 00:46:34;;;;;;;22.42;17.20;;;15.50;68.80;;;;;;338804;29;1089;-54
2023/11/15 00:46:45;;;;;;;21.25;16.65;;;15.50;68.70;;;;;;338762;29;1190;-55
2023/11/15 00:46:56;;;;;;;21.20;16.60;;;15.50;68.70;;;;;;338879;29;1750;-54
2023/11/15 00:47:07;;;;;;;20.60;16.80;;;15.50;68.70;;;;;;338880;29;1064;-53
2023/11/15 00:47:18;;;;;;;21.20;16.58;;;15.50;68.70;;;;;;338814;29;1104;-53
2023/11/15 00:47:29;;;;;;;20.63;16.00;;;15.50;68.70;;;;;;338755;29;1160;-54
2023/11/15 00:47:40;;;;;;;20.23;15.95;;;15.50;68.70;;;;;;338903;29;1077;-54
2023/11/15 00:47:51;;;;;;;21.80;16.55;;;15.50;68.70;;;;;;338867;29;882;-54
2023/11/15 00:48:02;;;;;;;21.33;16.60;;;15.50;68.70;;;;;;338784;29;1973;-55
2023/11/15 00:48:13;;;;;;;22.40;17.02;;;15.50;68.60;;;;;;338813;29;1020;-54
2023/11/15 00:48:24;;;;;;;22.60;16.80;;;15.50;68.60;;;;;;338850;29;1112;-54
2023/11/15 00:48:35;;;;;;;23.52;17.33;;;15.50;68.50;;;;;;338851;29;1147;-53
2023/11/15 00:48:46;;;;;;;20.77;16.50;;;15.50;68.50;;;;;;338804;29;885;-54
2023/11/15 00:48:57;;;;;;;21.23;16.50;;;15.50;68.50;;;;;;338863;29;843;-54
2023/11/15 00:49:07;;;;;;;20.42;15.73;;;15.50;68.50;;;;;;338870;29;988;-54
2023/11/15 00:49:18;;;;;;;21.60;16.08;;;15.50;68.50;;;;;;338868;29;954;-53
2023/11/15 00:49:29;;;;;;;21.77;16.20;;;15.50;68.50;;;;;;338832;29;1016;-54
2023/11/15 00:49:43;;;;;;;22.10;16.27;;;15.50;68.50;;;;;;338887;29;1025;-54
2023/11/15 00:49:54;;;;;;;20.80;15.68;;;15.50;68.50;;;;;;338818;29;1120;-54
2023/11/15 00:50:06;;;;;;;19.20;15.70;;;15.50;68.40;;;;;;338814;29;1390;-55
2023/11/15 00:50:18;;;;;;;18.67;15.73;;;15.40;68.30;;;;;;338807;29;1183;-54
2023/11/15 00:50:28;;;;;;;19.80;15.60;;;15.40;68.30;;;;;;338919;29;1036;-55
2023/11/15 00:50:39;;;;;;;20.88;15.93;;;15.40;68.20;;;;;;338871;29;985;-54
2023/11/15 00:50:51;;;;;;;21.80;16.38;;;15.50;68.20;;;;;;338828;29;1093;-55
2023/11/15 00:51:02;;;;;;;21.70;16.42;;;15.40;68.20;;;;;;338802;29;1036;-54
2023/11/15 00:51:12;;;;;;;21.93;16.67;;;15.40;68.20;;;;;;338771;29;898;-54
2023/11/15 00:51:23;;;;;;;20.55;16.20;;;15.40;68.20;;;;;;338869;29;981;-54
2023/11/15 00:51:34;;;;;;;19.02;16.13;;;15.40;68.20;;;;;;338863;29;895;-54
2023/11/15 00:51:45;;;;;;;18.92;15.90;;;15.40;68.20;;;;;;338764;29;1505;-53
2023/11/15 00:51:56;;;;;;;18.50;15.77;;;15.40;68.30;;;;;;338806;29;1151;-53
2023/11/15 00:52:08;;;;;;;19.33;15.70;;;15.50;68.30;;;;;;338904;29;894;-53
2023/11/15 00:52:19;;;;;;;21.33;16.23;;;15.40;68.30;;;;;;338840;29;1297;-55
2023/11/15 00:52:30;;;;;;;21.33;16.30;;;15.40;68.30;;;;;;338757;29;898;-54
2023/11/15 00:52:41;;;;;;;20.02;16.05;;;15.40;68.20;;;;;;338901;29;1060;-54
2023/11/15 00:52:52;;;;;;;19.60;16.02;;;15.40;68.20;;;;;;338832;29;1093;-54
2023/11/15 00:53:03;;;;;;;21.60;16.52;;;15.40;68.20;;;;;;338845;29;885;-54
2023/11/15 00:53:14;;;;;;;21.60;16.60;;;15.40;68.30;;;;;;338816;29;943;-55
2023/11/15 00:53:25;;;;;;;20.80;16.27;;;15.40;68.20;;;;;;338863;29;1821;-52
2023/11/15 00:53:35;;;;;;;19.90;15.45;;;15.40;68.20;;;;;;338752;29;838;-54
2023/11/15 00:53:46;;;;;;;20.70;15.43;;;15.40;68.20;;;;;;338671;29;1084;-53
2023/11/15 00:53:57;;;;;;;20.00;15.40;;;15.40;68.20;;;;;;338728;29;1390;-54
2023/11/15 00:54:07;;;;;;;20.42;15.70;;;15.40;68.30;;;;;;338744;29;1144;-54
2023/11/15 00:54:19;;;;;;;20.85;15.90;;;15.40;68.30;;;;;;338671;29;1547;-55
2023/11/15 00:54:30;;;;;;;21.23;16.13;;;15.40;68.30;;;;;;338759;29;1020;-54
2023/11/15 00:54:41;;;;;;;20.07;15.87;;;15.40;68.30;;;;;;338748;29;989;-54
2023/11/15 00:54:52;;;;;;;21.10;16.33;;;15.40;68.40;;;;;;338625;29;1124;-54
2023/11/15 00:55:02;;;;;;;21.50;16.38;;;15.40;68.30;;;;;;338748;29;1025;-53
2023/11/15 00:55:13;;;;;;;22.58;16.13;;;15.40;68.30;;;;;;338808;29;806;-53
2023/11/15 00:55:24;;;;;;;21.52;15.98;;;15.40;68.30;;;;;;338679;29;1154;-53
2023/11/15 00:55:35;;;;;;;20.55;16.10;;;15.40;68.30;;;;;;338873;29;1032;-54
2023/11/15 00:55:45;;;;;;;20.63;16.00;;;15.40;68.20;;;;;;338802;29;1471;-53
2023/11/15 00:55:56;;;;;;;21.47;16.17;;;15.40;68.20;;;;;;338802;29;902;-54
2023/11/15 00:56:07;;;;;;;21.45;16.48;;;15.40;68.20;;;;;;338826;29;1077;-54
2023/11/15 00:56:18;;;;;;;22.17;16.90;;;15.40;68.20;;;;;;338858;29;968;-54
2023/11/15 00:56:29;;;;;;;21.42;16.75;;;15.40;68.30;;;;;;338780;29;1041;-55
2023/11/15 00:56:40;;;;;;;22.33;16.67;;;15.40;68.30;;;;;;338879;29;974;-53
2023/11/15 00:56:51;;;;;;;21.60;16.38;;;15.40;68.30;;;;;;338816;29;1539;-54
2023/11/15 00:57:02;;;;;;;22.15;16.17;;;15.40;68.30;;;;;;338789;29;1044;-53
2023/11/15 00:57:13;;;;;;;21.00;15.85;;;15.30;68.30;;;;;;338843;29;1016;-55
2023/11/15 00:57:24;;;;;;;21.23;16.40;;;15.40;68.40;;;;;;338893;29;1040;-53
2023/11/15 00:57:34;;;;;;;21.30;16.77;;;15.30;68.40;;;;;;338798;29;1024;-54
2023/11/15 00:57:45;;;;;;;22.25;17.40;;;15.40;68.40;;;;;;338755;29;1685;-53
2023/11/15 00:57:59;;;;;;;20.63;16.55;;;15.30;68.40;;;;;;338791;29;1656;-54
2023/11/15 00:58:10;;;;;;;20.60;16.20;;;15.30;68.40;;;;;;338840;29;1076;-54
2023/11/15 00:58:22;;;;;;;19.63;16.30;;;15.30;68.50;;;;;;338792;29;811;-55